Terminal Aerodrome Forecast
Issued by NWS

Home | Current Version | Previous Version | Text Only | Print | Product List | Glossary On
Versions: 1 2 3 4 5 6 7 8 9 10 11 12 13 14 15 16 17 18 19 20 21
750
FTUS43 KPAH 201120
TAFCGI
TAF
KCGI 201120Z 2012/2112 VRB03KT P6SM SCT070 BKN120
     FM201800 18003KT P6SM VCTS FEW045CB PROB30 2021/2103 4SM TSRA
      BKN040CB
     FM210300 VRB02KT P6SM BKN250
     FM211100 VRB03KT 4SM BR BKN070=

USA.gov is the U.S. government's official web portal to all federal, state and local government web resources and services.